Flight Track Log - Related Links

Times and Time Zones

All times are in EDT time to prevent confusion due to time zone crossing. See the BAW4 flight status page for this flight to view local times or setup timezone preferences in your user account.

Time Position Orientation Groundspeed Altitude Reporting Facility
EDT Latitude Longitude Course Direction KTS MPH feet Rate Location/Type
Thu 10:18:50 PM 40.6000 -73.8000 108° East 176 203 1,900  Level New York TRACON
Thu 10:19:56 PM 40.5833 -73.7333 51° Northeast 265 305 3,800 2,453 Climbing New York TRACON
Thu 10:21:07 PM 40.6425 -73.6382 52° Northeast 277 319 7,500 3,101 Climbing FlightAware ADS-B
Thu 10:21:25 PM 40.6564 -73.6147 52° Northeast 278 320 8,400 2,923 Climbing FlightAware ADS-B
Thu 10:21:46 PM 40.6736 -73.5854 51° Northeast 283 326 9,400 2,676 Climbing FlightAware ADS-B
Thu 10:22:39 PM 40.7172 -73.5131 48° Northeast 292 336 11,700 2,557 Climbing FlightAware ADS-B
Thu 10:22:47 PM 40.7242 -73.5027 35° Northeast 293 337 12,000 2,333 Climbing FlightAware ADS-B
Thu 10:22:57 PM 40.7360 -73.4918 North 292 336 12,400 2,375 Climbing FlightAware ADS-B
Thu 10:23:35 PM 40.7855 -73.4862 359° North 290 334 13,900 2,348 Climbing FlightAware ADS-B
Thu 10:23:43 PM 40.7966 -73.4864 359° North 293 337 14,200 2,270 Climbing FlightAware ADS-B
Thu 10:24:12 PM 40.8354 -73.4870 North 293 337 15,300 2,264 Climbing FlightAware ADS-B
Thu 10:24:36 PM 40.8691 -73.4837 19° North 309 356 16,200 2,077 Climbing FlightAware ADS-B
Thu 10:24:38 PM 40.8718 -73.4825 26° Northeast 299 344 16,200 1,333 Level FlightAware ADS-B
Thu 10:25:03 PM 40.9047 -73.4616 27° Northeast 324 373 16,800 1,091 Climbing FlightAware ADS-B
Thu 10:25:11 PM 40.9159 -73.4542 27° Northeast 299 344 16,800  Level FlightAware ADS-B
Thu 10:25:34 PM 40.9495 -73.4319 27° Northeast 367 422 16,800 429 Level FlightAware ADS-B
Thu 10:26:07 PM 41.0020 -73.3964 27° Northeast 399 459 17,200 1,038 Climbing FlightAware ADS-B
Thu 10:26:26 PM 41.0342 -73.3745 27° Northeast 408 470 17,700 1,672 Climbing FlightAware ADS-B
Thu 10:27:08 PM 41.1066 -73.3252 27° Northeast 417 480 18,900 2,026 Climbing FlightAware ADS-B
Thu 10:27:43 PM 41.1680 -73.2834 27° Northeast 429 494 20,300 2,418 Climbing FlightAware ADS-B
Thu 10:28:15 PM 41.2246 -73.2449 27° Northeast 427 491 21,600 2,095 Climbing FlightAware ADS-B
Thu 10:28:46 PM 41.2783 -73.2083 27° Northeast 434 499 22,500 1,672 Climbing FlightAware ADS-B
Thu 10:29:16 PM 41.3328 -73.1711 27° Northeast 442 509 23,300 1,645 Climbing FlightAware ADS-B
Thu 10:29:48 PM 41.3928 -73.1302 31° Northeast 450 518 24,200 1,600 Climbing FlightAware ADS-B
Thu 10:30:31 PM 41.4695 -73.0686 40° Northeast 464 534 25,300 1,520 Climbing FlightAware ADS-B
Thu 10:31:03 PM 41.5228 -73.0092 38° Northeast 469 540 26,100 1,619 Climbing FlightAware ADS-B
Thu 10:31:34 PM 41.5760 -72.9542 37° Northeast 469 540 27,000 1,594 Climbing FlightAware ADS-B
Thu 10:32:07 PM 41.6324 -72.8968 37° Northeast 472 543 27,800 1,781 Climbing FlightAware ADS-B
Thu 10:32:38 PM 41.6853 -72.8427 37° Northeast 466 536 28,900 1,967 Climbing FlightAware ADS-B
Thu 10:33:08 PM 41.7369 -72.7900 37° Northeast 464 534 29,800 1,714 Climbing FlightAware ADS-B
Thu 10:34:16 PM 41.8521 -72.6719 37° Northeast 464 534 31,700 1,515 Climbing FlightAware ADS-B
Thu 10:34:47 PM 41.9053 -72.6171 37° Northeast 466 536 32,300 1,548 Climbing FlightAware ADS-B
Thu 10:35:18 PM 41.9569 -72.5639 38° Northeast 461 531 33,300 2,226 Climbing FlightAware ADS-B
Thu 10:35:49 PM 42.0081 -72.5109 38° Northeast 442 509 34,600 1,905 Climbing FlightAware ADS-B
Thu 10:36:21 PM 42.0593 -72.4579 39° Northeast 439 505 35,300 1,054 Climbing FlightAware ADS-B
Thu 10:37:03 PM 42.1150 -72.3981 37° Northeast 450 518 35,900 412 Climbing Boston Center
Thu 10:38:03 PM 42.2106 -72.3000 37° Northeast 440 506 36,000 50 Climbing Boston Center
Thu 10:39:03 PM 42.3083 -72.1986 38° Northeast 440 506 36,000  Level Boston Center
Thu 10:40:03 PM 42.4019 -72.1000 38° Northeast 440 506 36,000  Level Boston Center
Thu 10:41:03 PM 42.4994 -71.9953 37° Northeast 440 506 36,000  Level Boston Center
Thu 10:42:03 PM 42.5950 -71.8986 38° Northeast 440 506 36,000  Level Boston Center
Thu 10:43:03 PM 42.6883 -71.7989 38° Northeast 435 501 36,000 250 Level Boston Center
Thu 10:44:03 PM 42.7836 -71.6989 38° Northeast 435 501 36,500 500 Climbing Boston Center
Thu 10:45:03 PM 42.8786 -71.5958 37° Northeast 435 501 37,000 250 Climbing Boston Center
Thu 10:46:03 PM 42.9781 -71.4950 37° Northeast 423 487 37,000  Level Boston Center
Thu 10:47:03 PM 43.0769 -71.3911 41° Northeast 430 495 37,000 -50 Level Boston Center
Thu 10:48:03 PM 43.1697 -71.2814 38° Northeast 436 502 36,900 -50 Descending Boston Center
Thu 10:49:03 PM 43.2667 -71.1769 39° Northeast 436 502 36,900 50 Level Boston Center
Thu 10:50:03 PM 43.3614 -71.0722 39° Northeast 436 502 37,000 50 Climbing Boston Center
Thu 10:51:03 PM 43.4558 -70.9672 38° Northeast 436 502 37,000  Level Boston Center
Thu 10:52:03 PM 43.5525 -70.8617 39° Northeast 442 509 37,000  Level Boston Center
Thu 10:53:03 PM 43.6447 -70.7589 40° Northeast 437 503 37,000  Level Boston Center
Thu 10:54:03 PM 43.7247 -70.6675 39° Northeast 425 489 37,000  Level Boston Center
Thu 10:55:03 PM 43.8189 -70.5611 39° Northeast 420 483 37,000  Level Boston Center
Thu 10:56:03 PM 43.9128 -70.4572 39° Northeast 426 490 37,000  Level Boston Center
Thu 10:57:03 PM 44.0172 -70.3411 39° Northeast 426 490 37,000  Level Boston Center
Thu 10:58:03 PM 44.1089 -70.2367 39° Northeast 426 490 37,000  Level Boston Center
Thu 10:59:03 PM 44.2006 -70.1319 39° Northeast 426 490 37,000  Level Boston Center
Thu 11:00:03 PM 44.2944 -70.0269 40° Northeast 426 490 37,000  Level Boston Center
Thu 11:01:03 PM 44.3858 -69.9214 40° Northeast 421 484 37,000  Level Boston Center
Thu 11:02:03 PM 44.4772 -69.8156 40° Northeast 426 490 37,000  Level Boston Center
Thu 11:03:03 PM 44.5706 -69.7067 39° Northeast 426 490 37,000  Level Boston Center
Thu 11:04:03 PM 44.6639 -69.6000 40° Northeast 431 496 37,000  Level Boston Center
Thu 11:05:03 PM 44.7389 -69.5117 39° Northeast 431 496 37,000  Level Boston Center
Thu 11:06:03 PM 44.8400 -69.3953 39° Northeast 431 496 37,000  Level Boston Center
Thu 11:07:03 PM 44.9350 -69.2847 39° Northeast 441 507 37,000  Level Boston Center
Thu 11:08:03 PM 45.0278 -69.1769 40° Northeast 436 502 37,000  Level Boston Center
Thu 11:09:03 PM 45.1186 -69.0689 40° Northeast 436 502 37,000  Level Boston Center
Thu 11:10:03 PM 45.2131 -68.9572 40° Northeast 436 502 37,000  Level Boston Center
Thu 11:11:03 PM 45.3056 -68.8483 40° Northeast 436 502 37,000  Level Boston Center
Thu 11:12:03 PM 45.3958 -68.7392 40° Northeast 431 496 37,000  Level Boston Center
Thu 11:13:03 PM 45.4861 -68.6297 40° Northeast 431 496 37,000  Level Boston Center
Thu 11:14:03 PM 45.5783 -68.5200 40° Northeast 431 496 37,000  Level Boston Center
Thu 11:15:03 PM 45.6725 -68.4064 43° Northeast 431 496 37,000  Level Boston Center
Thu 11:16:03 PM 45.7678 -68.2778 40° Northeast 431 496 37,000  Level Boston Center
Thu 11:17:03 PM 45.8617 -68.1664 41° Northeast 436 502 37,000  Level Boston Center
Thu 11:18:03 PM 45.9514 -68.0522 39° Northeast 441 507 37,000  Level Boston Center
Thu 11:19:03 PM 46.0372 -67.9528 41° Northeast 441 507 37,000  Level Boston Center
Thu 11:20:03 PM 46.1286 -67.8378 40° Northeast 441 507 37,000 -50 Level Boston Center
Thu 11:21:03 PM 46.2197 -67.7253 41° Northeast 441 507 36,900  Descending Boston Center
Thu 11:22:03 PM 46.3108 -67.6094 41° Northeast 441 507 37,000  Climbing Boston Center
Thu 11:23:03 PM 46.4019 -67.4961 41° Northeast 441 507 36,900  Descending Boston Center
Thu 11:24:03 PM 46.4908 -67.3828 41° Northeast 441 507 37,000 50 Climbing Boston Center
Thu 11:25:03 PM 46.5817 -67.2658 44° Northeast 436 502 37,000  Level Boston Center
Thu 11:26:25 PM 46.7000 -67.1000 44° Northeast 430 495 37,000  Level Moncton Center
Thu 11:27:25 PM 46.7833 -66.9833 39° Northeast 420 483 37,000  Level Moncton Center
Thu 11:28:25 PM 46.8833 -66.8667 44° Northeast 430 495 37,000  Level Moncton Center
Thu 11:29:25 PM 46.9667 -66.7500 44° Northeast 420 483 37,000  Level Moncton Center
Thu 11:30:25 PM 47.0500 -66.6333 38° Northeast 420 483 37,000  Level Moncton Center
Thu 11:31:25 PM 47.1500 -66.5167 39° Northeast 420 483 37,000  Level Moncton Center
Thu 11:32:25 PM 47.2333 -66.4167 50° Northeast 420 483 37,000  Level Moncton Center
Thu 11:33:18 PM 47.3000 -66.3000 39° Northeast 420 483 37,000  Level Gander Center
Thu 11:34:18 PM 47.3833 -66.2000 38° Northeast 410 472 37,000  Level Gander Center
Thu 11:35:18 PM 47.4833 -66.0833 43° Northeast 420 483 37,000  Level Gander Center
Thu 11:36:18 PM 47.5667 -65.9667 50° Northeast 410 472 37,000  Level Gander Center
Thu 11:37:18 PM 47.6333 -65.8500 43° Northeast 410 472 37,000  Level Gander Center
Thu 11:38:18 PM 47.7167 -65.7333 38° Northeast 420 483 37,000  Level Gander Center
Thu 11:39:18 PM 47.8167 -65.6167 43° Northeast 410 472 37,000  Level Gander Center
Thu 11:40:18 PM 47.9000 -65.5000 39° Northeast 410 472 37,000  Level Gander Center
Thu 11:41:18 PM 47.9833 -65.4000 43° Northeast 410 472 37,000  Level Gander Center
Thu 11:42:18 PM 48.0667 -65.2833 43° Northeast 410 472 37,000  Level Gander Center
Thu 11:43:18 PM 48.1500 -65.1667 43° Northeast 410 472 37,000  Level Gander Center
Thu 11:44:18 PM 48.2333 -65.0500 43° Northeast 420 483 37,000  Level Gander Center
Thu 11:45:18 PM 48.3167 -64.9333 47° Northeast 410 472 37,000  Level Gander Center
Thu 11:46:25 PM 48.4000 -64.8000 38° Northeast 420 483 37,000  Level Moncton Center
Thu 11:47:18 PM 48.5000 -64.6833 49° Northeast 410 472 37,000  Level Gander Center
Thu 11:48:18 PM 48.5667 -64.5667 43° Northeast 420 483 37,000  Level Gander Center
Thu 11:49:18 PM 48.6500 -64.4500 47° Northeast 420 483 37,000  Level Gander Center
Thu 11:50:18 PM 48.7333 -64.3167 38° Northeast 420 483 37,000  Level Gander Center
Thu 11:51:25 PM 48.8333 -64.2000 46° Northeast 420 483 37,000  Level Moncton Center
Thu 11:52:25 PM 48.9167 -64.0667 46° Northeast 420 483 37,000 50 Level Moncton Center
Thu 11:53:25 PM 49.0000 -63.9333 42° Northeast 420 483 37,100  Climbing Moncton Center
Thu 11:54:25 PM 49.0833 -63.8167 46° Northeast 420 483 37,000 -50 Descending Moncton Center
Thu 11:55:25 PM 49.1667 -63.6833 38° Northeast 420 483 37,000  Level Moncton Center
Thu 11:56:25 PM 49.2500 -63.5833 47° Northeast 420 483 37,000  Level Moncton Center
Thu 11:57:25 PM 49.3500 -63.4167 38° Northeast 430 495 37,000  Level Moncton Center
Thu 11:58:25 PM 49.4333 -63.3167 44° Northeast 430 495 37,000 50 Level Moncton Center
Thu 11:59:25 PM 49.5333 -63.1667 52° Northeast 440 506 37,100  Climbing Moncton Center
Fri 12:00:25 AM 49.6000 -63.0333 42° Northeast 420 483 37,000 -50 Descending Moncton Center
Fri 12:01:25 AM 49.6833 -62.9167 44° Northeast 450 518 37,000  Level Moncton Center
Fri 12:02:25 AM 49.7833 -62.7667 42° Northeast 440 506 37,000  Level Moncton Center
Fri 12:03:25 AM 49.8667 -62.6500 44° Northeast 450 518 37,000 -50 Level Moncton Center
Fri 12:04:25 AM 49.9667 -62.5000 46° Northeast 440 506 36,900  Descending Moncton Center
Fri 12:05:25 AM 50.0500 -62.3667 46° Northeast 430 495 37,000 50 Climbing Moncton Center
Fri 12:06:25 AM 50.1333 -62.2333 46° Northeast 460 529 37,000 50 Level Moncton Center
Fri 12:07:25 AM 50.2167 -62.1000 46° Northeast 430 495 37,100  Climbing Moncton Center
Fri 12:08:25 AM 50.3000 -61.9667 49° Northeast 440 506 37,000 -50 Descending Moncton Center
Fri 12:09:25 AM 50.3833 -61.8167 40° Northeast 440 506 37,000  Level Moncton Center
Fri 12:10:25 AM 50.4833 -61.6833 45° Northeast 440 506 37,000  Level Moncton Center
Fri 12:11:25 AM 50.5667 -61.5500 45° Northeast 430 495 37,000  Level Moncton Center
Fri 12:12:25 AM 50.6500 -61.4167 48° Northeast 420 483 37,000  Level Moncton Center
Fri 12:13:25 AM 50.7167 -61.3000 52° Northeast 430 495 37,000  Level Moncton Center
Fri 12:14:25 AM 50.8000 -61.1333 45° Northeast 430 495 37,000  Level Moncton Center
Fri 12:15:25 AM 50.8833 -61.0000 40° Northeast 440 506 37,000  Level Moncton Center
Fri 12:16:25 AM 50.9833 -60.8667 55° Northeast 430 495 37,000  Level Moncton Center
Fri 12:17:25 AM 51.0500 -60.7167 40° Northeast 440 506 37,000  Level Moncton Center
Fri 12:18:25 AM 51.1500 -60.5833 48° Northeast 440 506 37,000  Level Moncton Center
Fri 12:19:25 AM 51.2333 -60.4333 45° Northeast 440 506 37,000  Level Moncton Center
Fri 12:20:25 AM 51.3167 -60.3000 48° Northeast 440 506 37,000  Level Moncton Center
Fri 12:21:25 AM 51.4000 -60.1500 43° Northeast 440 506 37,000  Level Moncton Center
Fri 12:22:17 AM 51.4667 -60.0500 45° Northeast 430 495 37,000  Level Gander Center
Fri 12:23:17 AM 51.5500 -59.9167 48° Northeast 430 495 37,000  Level Gander Center
Fri 12:24:17 AM 51.6333 -59.7667 45° Northeast 430 495 37,000  Level Gander Center
Fri 12:25:17 AM 51.7167 -59.6333 51° Northeast 430 495 37,000  Level Gander Center
Fri 12:26:17 AM 51.8000 -59.4667 45° Northeast 430 495 37,000  Level Gander Center
Fri 12:27:17 AM 51.8833 -59.3333 48° Northeast 430 495 37,000  Level Gander Center
Fri 12:28:25 AM 51.9667 -59.1833 48° Northeast 420 483 37,000  Level Moncton Center
Fri 12:29:25 AM 52.0500 -59.0333 47° Northeast 430 495 37,000  Level Moncton Center
Fri 12:30:17 AM 52.1167 -58.9167 48° Northeast 430 495 37,000  Level Gander Center
Fri 12:31:17 AM 52.2000 -58.7667 46° Northeast 440 506 37,000  Level Gander Center
Fri 12:32:17 AM 52.3000 -58.6000 51° Northeast 440 506 37,000  Level Gander Center
Fri 12:33:17 AM 52.3667 -58.4667 54° Northeast 440 506 37,000  Level Gander Center
Fri 12:34:18 AM 52.4333 -58.3167 44° Northeast 430 495 37,000  Level Gander Center
Fri 12:35:17 AM 52.5167 -58.1833 48° Northeast 420 483 37,000  Level Gander Center
Fri 12:36:17 AM 52.6000 -58.0333 47° Northeast 430 495 37,000  Level Gander Center
Fri 12:37:17 AM 52.6833 -57.8833 44° Northeast 420 483 37,000  Level Gander Center
Fri 12:38:17 AM 52.7667 -57.7500 54° Northeast 430 495 37,000  Level Gander Center
Fri 12:39:18 AM 52.8333 -57.6000 47° Northeast 440 506 37,000  Level Gander Center
Fri 12:40:17 AM 52.9167 -57.4500 50° Northeast 430 495 37,000  Level Gander Center
Fri 12:41:17 AM 53.0000 -57.2833 61° Northeast 430 495 37,000  Level Gander Center
Fri 12:42:18 AM 53.0500 -57.1333 56° Northeast 430 495 37,000  Level Gander Center
Fri 12:43:17 AM 53.1167 -56.9667 53° Northeast 430 495 37,000  Level Gander Center
Fri 12:44:18 AM 53.2000 -56.7833 63° Northeast 440 506 37,000  Level Gander Center
Fri 12:45:18 AM 53.2500 -56.6167 59° Northeast 430 495 37,000  Level Gander Center
Fri 12:46:17 AM 53.3167 -56.4333 56° Northeast 440 506 37,000  Level Gander Center
Fri 12:47:18 AM 53.3833 -56.2667 65° Northeast 430 495 37,000  Level Gander Center
Fri 12:48:18 AM 53.4333 -56.0833 47° Northeast 430 495 37,000  Level Gander Center
Fri 12:49:17 AM 53.5167 -55.9333 63° Northeast 430 495 37,000  Level Gander Center
Fri 12:50:18 AM 53.5667 -55.7667 58° Northeast 420 483 37,000  Level Gander Center
Fri 12:51:18 AM 53.6333 -55.5833 61° Northeast 420 483 37,000  Level Gander Center
Fri 12:52:18 AM 53.6833 -55.4333 61° Northeast 430 495 37,000  Level Gander Center
Fri 12:53:18 AM 53.7500 -55.2333 61° Northeast 420 483 37,000  Level Gander Center
Fri 12:54:18 AM 53.8000 -55.0833 46° Northeast 420 483 37,000  Level Gander Center
Fri 12:55:00 AM 53.8667 -54.9667 360° North 429 494 37,000  Level ETMS Enhanced Traffic Management System
Fri 12:55:41 AM 53.8667 -54.9667 77° East 429 494 37,000  Level ETMS Enhanced Traffic Management System
Fri 12:56:18 AM 53.9000 -54.7167 60° Northeast 430 495 37,000  Level Gander Center
Fri 12:57:18 AM 53.9667 -54.5167 73° East 430 495 37,000  Level Gander Center
Fri 12:58:18 AM 54.0000 -54.3333 73° East 430 495 37,000  Level Gander Center
Fri 12:59:18 AM 54.0333 -54.1500 67° East 430 495 37,000  Level Gander Center
Fri 01:16:18 AM 54.7667 -50.9667 65° Northeast 420 483 37,000  Level Gander Center
Fri 01:17:18 AM 54.8167 -50.7833 75° East 430 495 37,000  Level Gander Center
Fri 01:18:18 AM 54.8500 -50.5667 65° Northeast 430 495 37,000  Level Gander Center
Fri 01:19:18 AM 54.9000 -50.3833 82° East 430 495 37,000  Level Gander Center
Fri 01:20:18 AM 54.9167 -50.1667 49° Northeast 430 495 37,000  Level Gander Center
Fri 01:23:00 AM 55.0000 -50.0000 66° East 435 501 37,000  Level ETMS Enhanced Traffic Management System
Fri 02:11:00 AM 57.0000 -40.0000 86° East 455 524 37,000  Level ETMS Enhanced Traffic Management System
Fri 02:55:00 AM 57.0000 -30.0000 96° East 469 540 37,000  Level ETMS Enhanced Traffic Management System
Fri 02:55:15 AM 56.9784 -29.5126 97° East  Level FlightAware Approximate
Fri 03:02:15 AM 56.8533 -27.8073 98° East 469 540 37,000  Level FlightAware Transoceanic
Fri 03:03:15 AM 56.8351 -27.5713 98° East 469 540 37,000  Level FlightAware Transoceanic
Fri 03:04:15 AM 56.8165 -27.3356 98° East 469 540 37,000  Level FlightAware Transoceanic
Fri 03:05:15 AM 56.7975 -27.1001 98° East 469 540 37,000  Level FlightAware Transoceanic
Fri 03:06:15 AM 56.7780 -26.8649 99° East 469 540 37,000  Level FlightAware Transoceanic
Fri 03:07:15 AM 56.7581 -26.6299 99° East 469 540 37,000  Level FlightAware Transoceanic
Fri 03:08:15 AM 56.7377 -26.3951 99° East 469 540 37,000  Level FlightAware Transoceanic
Fri 03:09:15 AM 56.7169 -26.1606 99° East 469 540 37,000  Level FlightAware Transoceanic
Fri 03:10:15 AM 56.6956 -25.9264 99° East 469 540 37,000  Level FlightAware Transoceanic
Fri 03:11:15 AM 56.6740 -25.6924 100° East 469 540 37,000  Level FlightAware Transoceanic
Fri 03:12:15 AM 56.6518 -25.4587 100° East 469 540 37,000  Level FlightAware Transoceanic
Fri 03:13:15 AM 56.6293 -25.2253 100° East 469 540 37,000  Level FlightAware Transoceanic
Fri 03:14:15 AM 56.6063 -24.9921 100° East 469 540 37,000  Level FlightAware Transoceanic
Fri 03:15:15 AM 56.5828 -24.7593 100° East 469 540 37,000  Level FlightAware Transoceanic
Fri 03:16:15 AM 56.5590 -24.5267 101° East 469 540 37,000  Level FlightAware Transoceanic
Fri 03:17:15 AM 56.5347 -24.2945 101° East 469 540 37,000  Level FlightAware Transoceanic
Fri 03:18:15 AM 56.5099 -24.0625 101° East 469 540 37,000  Level FlightAware Transoceanic
Fri 03:19:15 AM 56.4847 -23.8309 101° East 469 540 37,000  Level FlightAware Transoceanic
Fri 03:20:15 AM 56.4591 -23.5995 101° East 469 540 37,000  Level FlightAware Transoceanic
Fri 03:21:15 AM 56.4331 -23.3685 102° East 469 540 37,000  Level FlightAware Transoceanic
Fri 03:22:15 AM 56.4067 -23.1378 102° East 469 540 37,000  Level FlightAware Transoceanic
Fri 03:23:15 AM 56.3798 -22.9074 102° East 469 540 37,000  Level FlightAware Transoceanic
Fri 03:24:15 AM 56.3525 -22.6773 102° East 469 540 37,000  Level FlightAware Transoceanic
Fri 03:25:15 AM 56.3247 -22.4476 102° East 469 540 37,000  Level FlightAware Transoceanic
Fri 03:26:15 AM 56.2966 -22.2182 103° East 469 540 37,000  Level FlightAware Transoceanic
Fri 03:27:15 AM 56.2680 -21.9891 103° East 469 540 37,000  Level FlightAware Transoceanic
Fri 03:28:15 AM 56.2390 -21.7604 103° East 469 540 37,000  Level FlightAware Transoceanic
Fri 03:29:15 AM 56.2096 -21.5320 103° East 469 540 37,000  Level FlightAware Transoceanic
Fri 03:30:15 AM 56.1797 -21.3040 103° East 469 540 37,000  Level FlightAware Transoceanic
Fri 03:31:15 AM 56.1494 -21.0764 104° East 469 540 37,000  Level FlightAware Transoceanic
Fri 03:32:15 AM 56.1188 -20.8491 104° East 469 540 37,000  Level FlightAware Transoceanic
Fri 03:33:15 AM 56.0877 -20.6221 104° East 469 540 37,000  Level FlightAware Transoceanic
Fri 03:34:15 AM 56.0561 -20.3956 104° East 469 540 37,000  Level FlightAware Transoceanic
Fri 03:35:15 AM 56.0242 -20.1694 98° East 469 540 37,000 12 Level FlightAware Transoceanic
Fri 03:36:15 AM 55.9957 -19.9601 98° East  Level FlightAware Approximate
Fri 03:37:15 AM 55.9728 -19.7487 98° East  Level FlightAware Approximate
Fri 03:38:15 AM 55.9495 -19.5376 98° East  Level FlightAware Approximate
Fri 03:39:15 AM 55.9259 -19.3267 98° East  Level FlightAware Approximate
Fri 03:40:15 AM 55.9019 -19.1161 99° East  Level FlightAware Approximate
Fri 03:41:15 AM 55.8776 -18.9058 99° East  Level FlightAware Approximate
Fri 03:42:15 AM 55.8529 -18.6957 99° East  Level FlightAware Approximate
Fri 03:43:15 AM 55.8278 -18.4859 99° East  Level FlightAware Approximate
Fri 03:44:15 AM 55.8024 -18.2764 99° East  Level FlightAware Approximate
Fri 03:45:15 AM 55.7766 -18.0671 99° East  Level FlightAware Approximate
Fri 03:46:15 AM 55.7505 -17.8581 99° East  Level FlightAware Approximate
Fri 03:47:15 AM 55.7240 -17.6494 100° East  Level FlightAware Approximate
Fri 03:48:15 AM 55.6971 -17.4410 100° East  Level FlightAware Approximate
Fri 03:49:15 AM 55.6699 -17.2328 100° East  Level FlightAware Approximate
Fri 03:50:15 AM 55.6424 -17.0250 100° East  Level FlightAware Approximate
Fri 03:51:15 AM 55.6145 -16.8174 100° East  Level FlightAware Approximate
Fri 03:52:15 AM 55.5863 -16.6102 100° East  Level FlightAware Approximate
Fri 03:53:15 AM 55.5577 -16.4032 100° East  Level FlightAware Approximate
Fri 03:54:15 AM 55.5288 -16.1966 100° East  Level FlightAware Approximate
Fri 03:55:15 AM 55.4995 -15.9902 101° East  Level FlightAware Approximate
Fri 03:56:15 AM 55.4698 -15.7842 101° East  Level FlightAware Approximate
Fri 03:57:15 AM 55.4398 -15.5785 101° East  Level FlightAware Approximate
Fri 03:58:15 AM 55.4095 -15.3731 101° East  Level FlightAware Approximate
Fri 03:59:15 AM 55.3788 -15.1680 101° East  Level FlightAware Approximate
Fri 04:00:15 AM 55.3478 -14.9632 101° East  Level FlightAware Approximate
Fri 04:01:15 AM 55.3165 -14.7588 101° East  Level FlightAware Approximate
Fri 04:02:15 AM 55.2848 -14.5547 101° East  Level FlightAware Approximate
Fri 04:03:15 AM 55.2528 -14.3509 101° East  Level FlightAware Approximate
Fri 04:04:15 AM 55.2204 -14.1474 101° East  Level FlightAware Approximate
Fri 04:05:15 AM 55.1877 -13.9442 102° East  Level FlightAware Approximate
Fri 04:06:15 AM 55.1546 -13.7414 102° East  Level FlightAware Approximate
Fri 04:07:15 AM 55.1213 -13.5390 102° East  Level FlightAware Approximate
Fri 04:08:15 AM 55.0875 -13.3369 102° East  Level FlightAware Approximate
Fri 04:09:15 AM 55.0535 -13.1351 102° East  Level FlightAware Approximate
Fri 04:10:15 AM 55.0191 -12.9336 102° East  Level FlightAware Approximate
Fri 04:11:15 AM 54.9844 -12.7325 102° East  Level FlightAware Approximate
Fri 04:12:15 AM 54.9493 -12.5318 102° East  Level FlightAware Approximate
Fri 04:13:15 AM 54.9139 -12.3314 102° East  Level FlightAware Approximate
Fri 04:14:15 AM 54.8782 -12.1314 102° East  Level FlightAware Approximate
Fri 04:15:15 AM 54.8422 -11.9317 102° East  Level FlightAware Approximate
Fri 04:16:15 AM 54.8058 -11.7324 102° East  Level FlightAware Approximate
Fri 04:17:15 AM 54.7691 -11.5334 102° East  Level FlightAware Approximate
Fri 04:18:15 AM 54.7321 -11.3348 102° East  Level FlightAware Approximate
Fri 04:19:15 AM 54.6948 -11.1366 102° East  Level FlightAware Approximate
Fri 04:20:15 AM 54.6571 -10.9387 102° East  Level FlightAware Approximate
Fri 04:21:15 AM 54.6192 -10.7412 102° East  Level FlightAware Approximate
Fri 04:22:15 AM 54.5809 -10.5441 102° East  Level FlightAware Approximate
Fri 04:23:15 AM 54.5422 -10.3473 102° East  Level FlightAware Approximate
Fri 04:24:15 AM 54.4976 -10.1547 102° East  Level FlightAware Approximate
Fri 04:25:15 AM 54.4566 -9.9598 102° East  Level FlightAware Approximate
Fri 04:26:15 AM 54.4153 -9.7653 102° East  Level FlightAware Approximate
Fri 04:27:15 AM 54.3737 -9.5712 102° East  Level FlightAware Approximate
Fri 04:28:15 AM 54.3317 -9.3774 102° East  Level FlightAware Approximate
Fri 04:29:15 AM 54.2895 -9.1841 102° East  Level FlightAware Approximate
Fri 04:30:15 AM 54.2469 -8.9911 102° East  Level FlightAware Approximate
Fri 04:31:15 AM 54.2041 -8.7986 101° East  Level FlightAware Approximate
Fri 04:32:15 AM 54.1609 -8.6065 101° East  Level FlightAware Approximate
Fri 04:33:15 AM 54.1174 -8.4147 101° East  Level FlightAware Approximate
Fri 04:34:15 AM 54.0737 -8.2234 101° East  Level FlightAware Approximate
Fri 04:35:15 AM 54.0296 -8.0324 100° East  Level FlightAware Approximate
Fri 04:36:15 AM 53.9852 -7.8419 100° East  Level FlightAware Approximate
Fri 04:37:15 AM 53.9405 -7.6518 100° East  Level FlightAware Approximate
Fri 04:38:15 AM 53.8955 -7.4621 99° East  Level FlightAware Approximate
Fri 04:39:15 AM 53.8502 -7.2728 99° East  Level FlightAware Approximate
Fri 04:40:15 AM 53.8047 -7.0839 98° East  Level FlightAware Approximate
Fri 04:41:15 AM 53.7588 -6.8954 98° East  Level FlightAware Approximate
Fri 04:42:15 AM 53.7126 -6.7073 97° East  Level FlightAware Approximate
Fri 04:43:15 AM 53.6661 -6.5197 96° East  Level FlightAware Approximate
Fri 04:44:15 AM 53.6194 -6.3324 95° East  Level FlightAware Approximate
Fri 04:45:15 AM 53.5723 -6.1456 94° East  Level FlightAware Approximate
Fri 04:46:15 AM 53.5250 -5.9592 93° East  Level FlightAware Approximate
Fri 04:47:15 AM 53.4774 -5.7732 92° East  Level FlightAware Approximate
Fri 04:48:15 AM 53.4294 -5.5876 90° East  Level FlightAware Approximate
Fri 04:49:15 AM 53.4642 -5.4090 92° East  Level FlightAware Approximate
Fri 04:50:15 AM 53.4072 -5.2309 89° East  Level FlightAware Approximate
Fri 04:51:15 AM 53.3499 -5.0533 86° East  Level FlightAware Approximate
Fri 04:56:46 AM 53.4050 -3.2373 96° East 438 504 38,000  Level FlightAware ADS-B
Fri 04:57:20 AM 53.3979 -3.1183 96° East 434 499 38,000  Level FlightAware ADS-B
Fri 04:58:23 AM 53.3853 -2.9093 96° East 433 498 38,000  Level FlightAware ADS-B
Fri 04:58:54 AM 53.3788 -2.8067 96° East 434 499 38,000  Level FlightAware ADS-B
Fri 04:59:25 AM 53.3719 -2.7022 97° East 434 499 38,000  Level FlightAware ADS-B
Fri 05:00:00 AM 53.3631 -2.5866 142° Southeast 435 501 38,000 -610 Level FlightAware ADS-B
Fri 05:06:28 AM 52.7628 -1.8062 149° Southeast 436 502 33,700 -695 Descending FlightAware ADS-B
Fri 05:07:03 AM 52.7046 -1.7491 149° Southeast 435 501 33,100 -1,619 Descending FlightAware ADS-B
Fri 05:07:31 AM 52.6545 -1.7000 149° Southeast 442 509 32,000 -3,474 Descending FlightAware ADS-B
Fri 05:08:38 AM 52.5357 -1.5833 149° Southeast 443 510 27,600 -3,835 Descending FlightAware ADS-B
Fri 05:09:08 AM 52.4832 -1.5310 148° Southeast 439 505 25,800 -3,541 Descending FlightAware ADS-B
Fri 05:09:39 AM 52.4312 -1.4768 147° Southeast 433 498 24,000 -3,469 Descending FlightAware ADS-B
Fri 05:10:12 AM 52.3759 -1.4188 147° Southeast 427 491 22,100 -3,429 Descending FlightAware ADS-B
Fri 05:10:42 AM 52.3265 -1.3671 147° Southeast 420 483 20,400 -2,557 Descending FlightAware ADS-B
Fri 05:11:13 AM 52.2771 -1.3154 148° Southeast 394 453 19,500 -1,645 Descending FlightAware ADS-B
Fri 05:11:44 AM 52.2310 -1.2677 148° Southeast 371 427 18,700 -1,535 Descending FlightAware ADS-B
Fri 05:11:56 AM 52.2135 -1.2497 148° Southeast 364 419 18,400 -1,467 Descending FlightAware ADS-B
Fri 05:12:29 AM 52.1690 -1.2035 148° Southeast 353 406 17,600 -1,406 Descending FlightAware ADS-B
Fri 05:13:00 AM 52.1288 -1.1620 147° Southeast 346 398 16,900 -1,500 Descending FlightAware ADS-B
Fri 05:13:25 AM 52.0941 -1.1255 142° Southeast 348 400 16,200 -1,543 Descending FlightAware ADS-B
Fri 05:13:35 AM 52.0838 -1.1124 137° Southeast 346 398 16,000 -1,000 Descending FlightAware ADS-B
Fri 05:13:43 AM 52.0770 -1.1021 132° Southeast 345 397 15,900 -1,350 Descending FlightAware ADS-B
Fri 05:14:15 AM 52.0389 -1.0325 131° Southeast 330 380 15,100 -857 Descending FlightAware ADS-B
Fri 05:14:46 AM 52.0073 -0.9743 128° Southeast 337 388 15,000 -300 Descending FlightAware ADS-B
Fri 05:14:55 AM 51.9982 -0.9555 122° Southeast 340 391 14,900 -1,000 Descending FlightAware ADS-B
Fri 05:15:04 AM 51.9909 -0.9365 117° Southeast 341 392 14,700 -1,538 Descending FlightAware ADS-B
Fri 05:15:34 AM 51.9695 -0.8678 117° Southeast 339 390 13,900 -1,475 Descending FlightAware ADS-B
Fri 05:16:05 AM 51.9493 -0.8030 117° Southeast 333 383 13,200 -1,406 Descending FlightAware ADS-B
Fri 05:16:38 AM 51.9267 -0.7315 117° Southeast 333 383 12,400 -1,500 Descending FlightAware ADS-B
Fri 05:17:05 AM 51.9064 -0.6669 114° Southeast 331 381 11,700 -1,636 Descending FlightAware ADS-B
Fri 05:17:11 AM 51.9024 -0.6524 109° East 332 382 11,500 -1,846 Descending FlightAware ADS-B
Fri 05:17:18 AM 51.8989 -0.6356 102° East 331 381 11,300 -1,421 Descending FlightAware ADS-B
Fri 05:17:49 AM 51.8888 -0.5613 102° East 323 372 10,600 -1,219 Descending FlightAware ADS-B
Fri 05:18:22 AM 51.8788 -0.4845 102° East 318 366 10,000 -1,125 Descending FlightAware ADS-B
Fri 05:18:37 AM 51.8741 -0.4499 103° East 310 357 9,700 -1,161 Descending FlightAware ADS-B
Fri 05:18:53 AM 51.8694 -0.4159 102° East 299 344 9,400 -1,161 Descending FlightAware ADS-B
Fri 05:19:08 AM 51.8650 -0.3837 103° East 294 338 9,100 -1,000 Descending FlightAware ADS-B
Fri 05:19:23 AM 51.8605 -0.3512 103° East 293 337 8,900 -1,000 Descending FlightAware ADS-B
Fri 05:19:38 AM 51.8560 -0.3187 103° East 293 337 8,600 -1,161 Descending FlightAware ADS-B
Fri 05:19:54 AM 51.8514 -0.2858 103° East 292 336 8,300 -968 Descending FlightAware ADS-B
Fri 05:20:09 AM 51.8467 -0.2531 105° East 291 335 8,100 -750 Descending FlightAware ADS-B
Fri 05:20:18 AM 51.8436 -0.2338 111° Southeast 290 334 8,000 -462 Descending FlightAware ADS-B
Fri 05:20:22 AM 51.8418 -0.2262 118° Southeast 289 333 8,000  Level FlightAware ADS-B
Fri 05:20:26 AM 51.8393 -0.2185 125° Southeast 289 333 8,000  Level FlightAware ADS-B
Fri 05:20:32 AM 51.8349 -0.2082 130° Southeast 289 333 8,000  Level FlightAware ADS-B
Fri 05:20:47 AM 51.8219 -0.1831 130° Southeast 290 334 8,000 -581 Level FlightAware ADS-B
Fri 05:21:03 AM 51.8078 -0.1559 130° Southeast 289 333 7,700 -1,125 Descending FlightAware ADS-B
Fri 05:21:19 AM 51.7942 -0.1295 130° Southeast 289 333 7,400 -1,125 Descending FlightAware ADS-B
Fri 05:21:35 AM 51.7808 -0.1038 131° Southeast 288 331 7,100 -1,125 Descending FlightAware ADS-B
Fri 05:21:51 AM 51.7668 -0.0773 130° Southeast 287 330 6,800 -1,125 Descending FlightAware ADS-B
Fri 05:22:07 AM 51.7531 -0.0513 130° Southeast 280 322 6,500 -938 Descending FlightAware ADS-B
Fri 05:22:23 AM 51.7409 -0.0282 130° Southeast 273 314 6,300 -1,059 Descending FlightAware ADS-B
Fri 05:22:41 AM 51.7262 0.0004 130° Southeast 263 303 5,900 -1,235 Descending FlightAware ADS-B
Fri 05:22:57 AM 51.7136 0.0244 131° Southeast 259 298 5,600 -1,059 Descending FlightAware ADS-B
Fri 05:23:15 AM 51.7000 0.0498 130° Southeast 255 293 5,300 -1,029 Descending FlightAware ADS-B
Fri 05:23:32 AM 51.6871 0.0743 130° Southeast 250 288 5,000 -1,091 Descending FlightAware ADS-B
Fri 05:23:48 AM 51.6749 0.0976 130° Southeast 246 283 4,700 -844 Descending FlightAware ADS-B
Fri 05:24:36 AM 51.6410 0.1618 206° Southwest 246 283 4,100 -750 Descending FlightAware ADS-B
Fri 05:32:15 AM 50.8113 -0.4783 25° Northeast  Level Estimated
Fri 05:33:15 AM 51.5000 0.0500 32° Northeast  Level FlightAware Approximate
Fri 05:34:15 AM 51.6022 0.1525 212° Southwest  Level Estimated
Fri 05:35:15 AM 51.5000 0.0500 32° Northeast  Level FlightAware Approximate
Fri 05:36:15 AM 51.6022 0.1525 212° Southwest  Level Estimated
Fri 05:37:15 AM 51.5000 0.0500 32° Northeast  Level FlightAware Approximate
Fri 05:38:15 AM 51.6022 0.1525 212° Southwest  Level Estimated
Fri 05:39:15 AM 51.5000 0.0500 212° Southwest  Level FlightAware Approximate

Login

Don't have an account? Register now (free) for customized features, flight alerts, and more!